Time;durP1;ratioP1;P1;durP2;ratioP2;P2;SDS_P1;SDS_P2;PMS_P1;PMS_P2;Temp;Humidity;BMP_temperature;BMP_pressure;BME280_temperature;BME280_humidity;BME280_pressure;Samples;Min_cycle;Max_cycle;Signal;HPM_P1;HPM_P2
2023/09/05 00:01:10;;;;;;;230.17;91.70;;;;;;;;;;5074302;28;20491;-46
2023/09/05 00:03:36;;;;;;;233.83;96.13;;;;;;;;;;5074282;28;20427;-47
2023/09/05 00:06:04;;;;;;;234.73;98.90;;;;;;;;;;5074433;28;20400;-48
2023/09/05 00:08:31;;;;;;;233.93;99.23;;;;;;;;;;5074308;28;20412;-47
2023/09/05 00:11:01;;;;;;;231.47;93.53;;;;;;;;;;5074065;28;20400;-46
2023/09/05 00:13:27;;;;;;;232.60;95.90;;;;;;;;;;5074099;28;20464;-46
2023/09/05 00:15:53;;;;;;;230.27;92.57;;;;;;;;;;5074539;28;20418;-47
2023/09/05 00:18:19;;;;;;;233.37;95.27;;;;;;;;;;5074046;28;20840;-47
2023/09/05 00:20:46;;;;;;;231.20;95.47;;;;;;;;;;5073893;28;20447;-46
2023/09/05 00:23:12;;;;;;;231.47;94.37;;;;;;;;;;5073784;28;20544;-46
2023/09/05 00:25:38;;;;;;;233.13;95.53;;;;;;;;;;5074034;28;20412;-46
2023/09/05 00:28:04;;;;;;;228.83;90.37;;;;;;;;;;5074008;28;20439;-46
2023/09/05 00:30:34;;;;;;;235.07;98.80;;;;;;;;;;5073962;28;20428;-46
2023/09/05 00:33:00;;;;;;;232.30;96.23;;;;;;;;;;5073895;28;20401;-46
2023/09/05 00:35:26;;;;;;;228.20;88.10;;;;;;;;;;5073765;28;20441;-46
2023/09/05 00:37:54;;;;;;;231.87;94.53;;;;;;;;;;5073593;28;20491;-47
2023/09/05 00:40:20;;;;;;;230.77;92.17;;;;;;;;;;5073494;28;20417;-46
2023/09/05 00:42:47;;;;;;;231.00;93.30;;;;;;;;;;5073575;28;20821;-46
2023/09/05 00:45:13;;;;;;;232.13;93.13;;;;;;;;;;5073772;28;20447;-46
2023/09/05 00:47:39;;;;;;;233.47;95.53;;;;;;;;;;5073565;28;20985;-46
2023/09/05 00:50:07;;;;;;;232.27;93.60;;;;;;;;;;5073413;28;20437;-47
2023/09/05 00:52:33;;;;;;;231.13;93.77;;;;;;;;;;5073543;28;20439;-46
2023/09/05 00:54:59;;;;;;;231.43;92.63;;;;;;;;;;5073126;28;20512;-46
2023/09/05 00:57:26;;;;;;;231.37;94.37;;;;;;;;;;5073547;28;20534;-46
2023/09/05 00:59:52;;;;;;;236.67;99.57;;;;;;;;;;5073428;28;20403;-46
2023/09/05 01:02:18;;;;;;;233.97;97.77;;;;;;;;;;5072948;28;20448;-46
2023/09/05 01:04:44;;;;;;;234.07;96.90;;;;;;;;;;5072835;28;20420;-46
2023/09/05 01:07:10;;;;;;;238.17;102.17;;;;;;;;;;5072796;28;20461;-47
2023/09/05 01:09:51;;;;;;;228.70;89.80;;;;;;;;;;5072569;28;20452;-47
2023/09/05 01:12:17;;;;;;;231.87;96.27;;;;;;;;;;5073226;28;20439;-48
2023/09/05 01:14:43;;;;;;;233.83;99.20;;;;;;;;;;5073271;28;20896;-47
2023/09/05 01:17:09;;;;;;;232.63;96.93;;;;;;;;;;5072000;28;20408;-47
2023/09/05 01:19:39;;;;;;;234.47;96.63;;;;;;;;;;5073083;28;20415;-47
2023/09/05 01:22:05;;;;;;;228.93;93.67;;;;;;;;;;5073283;28;20462;-47
2023/09/05 01:24:35;;;;;;;232.03;97.13;;;;;;;;;;5073043;28;20507;-47
2023/09/05 01:27:02;;;;;;;230.90;94.47;;;;;;;;;;5073706;28;20400;-46
2023/09/05 01:29:35;;;;;;;233.10;96.87;;;;;;;;;;5073022;28;20396;-47
2023/09/05 01:32:02;;;;;;;232.07;97.37;;;;;;;;;;5072703;28;20397;-47
2023/09/05 01:34:28;;;;;;;229.70;92.27;;;;;;;;;;5073128;28;20424;-46
2023/09/05 01:36:54;;;;;;;231.70;97.83;;;;;;;;;;5072824;28;20400;-46
2023/09/05 01:39:20;;;;;;;228.10;90.13;;;;;;;;;;5072769;28;20404;-48
2023/09/05 01:41:46;;;;;;;230.03;93.20;;;;;;;;;;5072457;28;20908;-47
2023/09/05 01:44:12;;;;;;;230.00;93.93;;;;;;;;;;5072643;28;21170;-47
2023/09/05 01:46:38;;;;;;;232.53;96.93;;;;;;;;;;5072598;28;20420;-47
2023/09/05 01:49:04;;;;;;;231.13;95.10;;;;;;;;;;5072549;28;20892;-46
2023/09/05 01:51:30;;;;;;;231.07;91.87;;;;;;;;;;5072159;28;20904;-46
2023/09/05 01:53:56;;;;;;;227.60;89.27;;;;;;;;;;5072370;28;20432;-46
2023/09/05 01:56:22;;;;;;;233.97;95.00;;;;;;;;;;5072492;28;20483;-46
2023/09/05 01:58:48;;;;;;;235.90;99.27;;;;;;;;;;5072520;28;20949;-46
2023/09/05 02:01:13;;;;;;;238.67;100.60;;;;;;;;;;5072062;28;20923;-48
2023/09/05 02:03:39;;;;;;;238.63;101.80;;;;;;;;;;5069441;28;20870;-47
2023/09/05 02:06:05;;;;;;;233.43;95.13;;;;;;;;;;5071615;28;20428;-46
2023/09/05 02:08:34;;;;;;;237.40;96.77;;;;;;;;;;5071957;28;20481;-46
2023/09/05 02:11:00;;;;;;;236.57;99.20;;;;;;;;;;5076009;28;20459;-46
2023/09/05 02:13:26;;;;;;;238.80;100.43;;;;;;;;;;5072221;28;20472;-46
2023/09/05 02:15:52;;;;;;;235.57;97.23;;;;;;;;;;5071856;28;20418;-46
2023/09/05 02:18:18;;;;;;;236.57;97.03;;;;;;;;;;5071962;28;20412;-46
2023/09/05 02:20:44;;;;;;;238.63;97.80;;;;;;;;;;5071732;28;20425;-47
2023/09/05 02:23:10;;;;;;;234.07;95.37;;;;;;;;;;5071633;28;20486;-46
2023/09/05 02:25:36;;;;;;;235.07;96.63;;;;;;;;;;5071692;28;20409;-46
2023/09/05 02:28:02;;;;;;;237.70;95.73;;;;;;;;;;5071860;28;20403;-46
2023/09/05 02:30:29;;;;;;;233.63;95.27;;;;;;;;;;5071412;28;20403;-47
2023/09/05 02:32:55;;;;;;;235.27;95.77;;;;;;;;;;5071827;28;20540;-46
2023/09/05 02:35:25;;;;;;;235.37;97.33;;;;;;;;;;5071779;28;20404;-46
2023/09/05 02:37:51;;;;;;;238.90;100.77;;;;;;;;;;5071655;28;20412;-47
2023/09/05 02:40:18;;;;;;;236.13;99.07;;;;;;;;;;5071444;28;20408;-47
2023/09/05 02:42:44;;;;;;;235.03;95.90;;;;;;;;;;5069802;28;20462;-46
2023/09/05 02:45:10;;;;;;;234.67;96.57;;;;;;;;;;5069034;28;20530;-47
2023/09/05 02:47:36;;;;;;;234.37;96.33;;;;;;;;;;5071619;28;20404;-46
2023/09/05 02:50:02;;;;;;;238.17;101.43;;;;;;;;;;5071323;28;20902;-47
2023/09/05 02:52:29;;;;;;;235.40;97.17;;;;;;;;;;5071288;28;20439;-46
2023/09/05 02:54:55;;;;;;;236.40;94.90;;;;;;;;;;5071204;28;20485;-46
2023/09/05 02:57:21;;;;;;;233.17;93.77;;;;;;;;;;5071447;28;20485;-46
2023/09/05 02:59:47;;;;;;;237.57;95.73;;;;;;;;;;5071342;28;20416;-46
2023/09/05 03:02:13;;;;;;;236.03;92.83;;;;;;;;;;5071564;28;20448;-46
2023/09/05 03:04:39;;;;;;;241.80;99.93;;;;;;;;;;5069994;28;20923;-47
2023/09/05 03:07:05;;;;;;;233.07;89.57;;;;;;;;;;5071531;28;20414;-46
2023/09/05 03:09:31;;;;;;;241.17;93.03;;;;;;;;;;5071530;28;20388;-46
2023/09/05 03:11:57;;;;;;;238.23;92.03;;;;;;;;;;5071156;28;20768;-48
2023/09/05 03:14:23;;;;;;;243.30;94.40;;;;;;;;;;5071319;28;20507;-47
2023/09/05 03:16:49;;;;;;;237.77;93.20;;;;;;;;;;5071588;28;20535;-46
2023/09/05 03:19:15;;;;;;;240.67;94.87;;;;;;;;;;5073888;28;20953;-47
2023/09/05 03:21:41;;;;;;;238.37;97.27;;;;;;;;;;5075272;28;20810;-46
2023/09/05 03:24:07;;;;;;;236.20;91.47;;;;;;;;;;5072809;28;20435;-47
2023/09/05 03:26:33;;;;;;;235.60;90.27;;;;;;;;;;5075047;28;20902;-47
2023/09/05 03:28:59;;;;;;;236.87;94.17;;;;;;;;;;5075395;28;20412;-47
2023/09/05 03:31:30;;;;;;;234.40;89.70;;;;;;;;;;5074784;28;20405;-47
2023/09/05 03:33:56;;;;;;;232.27;87.53;;;;;;;;;;5074864;28;20515;-47
2023/09/05 03:36:25;;;;;;;234.57;90.67;;;;;;;;;;5074936;28;20417;-46
2023/09/05 03:38:51;;;;;;;237.53;91.57;;;;;;;;;;5074927;28;20407;-46
2023/09/05 03:41:17;;;;;;;233.53;88.47;;;;;;;;;;5074415;28;20409;-47
2023/09/05 03:43:43;;;;;;;233.13;88.03;;;;;;;;;;5081642;28;20428;-47
2023/09/05 03:46:09;;;;;;;234.00;89.20;;;;;;;;;;5074823;28;20401;-46
2023/09/05 03:48:35;;;;;;;235.13;90.57;;;;;;;;;;5074655;28;20400;-47
2023/09/05 03:51:01;;;;;;;232.07;88.17;;;;;;;;;;5074397;28;20422;-46
2023/09/05 03:53:27;;;;;;;234.60;89.03;;;;;;;;;;5074441;28;20578;-48
2023/09/05 03:55:53;;;;;;;234.27;90.73;;;;;;;;;;5074463;28;20412;-46
2023/09/05 03:58:19;;;;;;;235.27;89.83;;;;;;;;;;5074552;28;20424;-47
2023/09/05 04:00:45;;;;;;;234.87;91.27;;;;;;;;;;5074579;28;20691;-46
2023/09/05 04:03:12;;;;;;;238.57;91.80;;;;;;;;;;5070506;28;20462;-46
2023/09/05 04:05:38;;;;;;;237.60;88.07;;;;;;;;;;5074420;28;20648;-47
2023/09/05 04:08:08;;;;;;;238.27;90.30;;;;;;;;;;5077169;28;20410;-47
2023/09/05 04:10:34;;;;;;;236.13;87.57;;;;;;;;;;5074324;28;20514;-47
2023/09/05 04:13:00;;;;;;;236.03;86.67;;;;;;;;;;5074145;28;20404;-46
2023/09/05 04:15:26;;;;;;;237.53;89.60;;;;;;;;;;5074179;28;20428;-46
2023/09/05 04:17:52;;;;;;;240.07;88.50;;;;;;;;;;5073951;28;20417;-47
2023/09/05 04:20:18;;;;;;;237.73;87.40;;;;;;;;;;5076666;28;20415;-47
2023/09/05 04:22:44;;;;;;;240.17;91.87;;;;;;;;;;5074052;28;20539;-46
2023/09/05 04:25:10;;;;;;;237.20;87.47;;;;;;;;;;5074269;28;20403;-47
2023/09/05 04:27:36;;;;;;;232.97;83.30;;;;;;;;;;5074193;28;20484;-47
2023/09/05 04:30:03;;;;;;;237.87;89.67;;;;;;;;;;5073439;28;20405;-46
2023/09/05 04:32:32;;;;;;;238.77;91.13;;;;;;;;;;5073718;28;20403;-46
2023/09/05 04:35:02;;;;;;;239.47;89.60;;;;;;;;;;5074060;28;20445;-47
2023/09/05 04:37:28;;;;;;;241.23;87.80;;;;;;;;;;5074094;28;20775;-46
2023/09/05 04:39:54;;;;;;;242.30;90.33;;;;;;;;;;5073722;28;20499;-48
2023/09/05 04:42:21;;;;;;;243.57;89.07;;;;;;;;;;5073892;28;20455;-47
2023/09/05 04:44:47;;;;;;;243.23;89.67;;;;;;;;;;5073831;28;20932;-46
2023/09/05 04:47:26;;;;;;;237.50;91.17;;;;;;;;;;5073834;28;20403;-46
2023/09/05 04:49:57;;;;;;;244.17;96.57;;;;;;;;;;5073600;28;20407;-46
2023/09/05 04:52:26;;;;;;;235.17;87.67;;;;;;;;;;5083486;28;20434;-47
2023/09/05 04:54:54;;;;;;;224.40;81.40;;;;;;;;;;5094016;28;20424;-47
2023/09/05 04:57:20;;;;;;;227.53;85.63;;;;;;;;;;5093849;28;20806;-46
2023/09/05 04:59:47;;;;;;;230.60;87.07;;;;;;;;;;5093677;28;20498;-46
2023/09/05 05:02:16;;;;;;;224.83;85.63;;;;;;;;;;5094139;28;20451;-46
2023/09/05 05:04:43;;;;;;;227.30;85.90;;;;;;;;;;5093555;28;20426;-46
2023/09/05 05:07:09;;;;;;;226.53;84.60;;;;;;;;;;5093748;28;20410;-46
2023/09/05 05:09:35;;;;;;;228.50;85.27;;;;;;;;;;5093626;28;20481;-46
2023/09/05 05:12:01;;;;;;;228.00;85.27;;;;;;;;;;5093595;28;20490;-46
2023/09/05 05:14:29;;;;;;;227.00;86.00;;;;;;;;;;5093405;28;20431;-46
2023/09/05 05:16:56;;;;;;;225.13;84.50;;;;;;;;;;5093597;28;20948;-46
2023/09/05 05:19:22;;;;;;;229.83;85.93;;;;;;;;;;5093417;28;20464;-47
2023/09/05 05:21:51;;;;;;;224.87;83.90;;;;;;;;;;5093210;28;20449;-46
2023/09/05 05:24:17;;;;;;;224.67;81.97;;;;;;;;;;5093304;28;20417;-47
2023/09/05 05:26:45;;;;;;;225.00;84.50;;;;;;;;;;5093346;28;20418;-46
2023/09/05 05:29:11;;;;;;;224.50;84.60;;;;;;;;;;5093387;28;20840;-47
2023/09/05 05:31:37;;;;;;;230.60;88.37;;;;;;;;;;5092527;28;21227;-46
2023/09/05 05:34:03;;;;;;;224.47;83.87;;;;;;;;;;5093094;28;20427;-46
2023/09/05 05:36:29;;;;;;;223.40;83.57;;;;;;;;;;5093341;28;20437;-46
2023/09/05 05:39:02;;;;;;;223.97;83.73;;;;;;;;;;5093139;28;20771;-46
2023/09/05 05:41:28;;;;;;;225.57;84.93;;;;;;;;;;5091921;28;20411;-48
2023/09/05 05:43:55;;;;;;;223.97;82.93;;;;;;;;;;5092754;28;20464;-46
2023/09/05 05:46:21;;;;;;;224.27;85.10;;;;;;;;;;5092967;28;20410;-46
2023/09/05 05:48:48;;;;;;;229.40;90.67;;;;;;;;;;5085777;28;20421;-46
2023/09/05 05:51:15;;;;;;;226.77;88.00;;;;;;;;;;5079348;28;20511;-46
2023/09/05 05:53:42;;;;;;;227.27;86.80;;;;;;;;;;5072791;28;20431;-47
2023/09/05 05:56:09;;;;;;;226.57;87.40;;;;;;;;;;5072323;28;20884;-47
2023/09/05 05:58:35;;;;;;;228.90;91.30;;;;;;;;;;5071952;28;20422;-46
2023/09/05 06:01:01;;;;;;;227.30;90.33;;;;;;;;;;5071875;28;20554;-47
2023/09/05 06:03:27;;;;;;;227.83;89.93;;;;;;;;;;5071937;28;20477;-46
2023/09/05 06:05:54;;;;;;;227.07;91.97;;;;;;;;;;5072137;28;20774;-46
2023/09/05 06:08:21;;;;;;;224.67;83.00;;;;;;;;;;5078187;28;20412;-47
2023/09/05 06:10:48;;;;;;;222.70;83.30;;;;;;;;;;5071811;28;20489;-46
2023/09/05 06:13:14;;;;;;;224.83;86.67;;;;;;;;;;5072044;28;20717;-46
2023/09/05 06:15:40;;;;;;;220.47;81.30;;;;;;;;;;5069582;28;20938;-47
2023/09/05 06:18:11;;;;;;;224.23;85.77;;;;;;;;;;5071825;28;20420;-46
2023/09/05 06:20:37;;;;;;;225.30;86.20;;;;;;;;;;5071830;28;20437;-46
2023/09/05 06:23:04;;;;;;;222.70;82.67;;;;;;;;;;5071678;28;20448;-46
2023/09/05 06:25:30;;;;;;;226.17;87.13;;;;;;;;;;5071720;28;20408;-47
2023/09/05 06:27:58;;;;;;;225.33;86.47;;;;;;;;;;5072060;28;20418;-46
2023/09/05 06:30:24;;;;;;;224.50;83.77;;;;;;;;;;5071512;28;20411;-46
2023/09/05 06:32:50;;;;;;;223.87;84.67;;;;;;;;;;5071811;28;20407;-46
2023/09/05 06:35:17;;;;;;;224.63;83.27;;;;;;;;;;5071545;28;20417;-47
2023/09/05 06:37:43;;;;;;;224.37;83.37;;;;;;;;;;5071722;28;20413;-46
2023/09/05 06:40:15;;;;;;;241.20;94.70;;;;;;;;;;5067470;28;20423;-47
2023/09/05 06:42:44;;;;;;;223.97;83.97;;;;;;;;;;5068596;28;20464;-46
2023/09/05 06:45:11;;;;;;;226.43;88.73;;;;;;;;;;5071680;28;20413;-46
2023/09/05 06:47:37;;;;;;;225.47;87.77;;;;;;;;;;5071388;28;20410;-46
2023/09/05 06:50:04;;;;;;;224.00;85.03;;;;;;;;;;5071467;28;20399;-46
2023/09/05 06:52:30;;;;;;;223.87;84.93;;;;;;;;;;5071175;28;20426;-48
2023/09/05 06:54:56;;;;;;;226.70;89.97;;;;;;;;;;5067550;28;20444;-47
2023/09/05 06:57:22;;;;;;;225.30;85.80;;;;;;;;;;5071322;28;20464;-46
2023/09/05 06:59:51;;;;;;;240.83;101.73;;;;;;;;;;5070570;28;20407;-46
2023/09/05 07:02:17;;;;;;;227.50;89.07;;;;;;;;;;5070760;28;20530;-46
2023/09/05 07:04:43;;;;;;;224.73;89.07;;;;;;;;;;5071537;28;20422;-47
2023/09/05 07:07:10;;;;;;;227.47;91.87;;;;;;;;;;5071556;28;20400;-48
2023/09/05 07:09:36;;;;;;;234.83;95.00;;;;;;;;;;5071337;28;20419;-46
2023/09/05 07:12:04;;;;;;;235.57;101.23;;;;;;;;;;5071505;28;20427;-46
2023/09/05 07:14:30;;;;;;;233.27;100.47;;;;;;;;;;5071385;28;20498;-47
2023/09/05 07:16:56;;;;;;;232.43;97.47;;;;;;;;;;5071481;28;20396;-46
2023/09/05 07:19:22;;;;;;;234.90;99.07;;;;;;;;;;5071440;28;20446;-47
2023/09/05 07:21:48;;;;;;;237.50;102.43;;;;;;;;;;5071183;28;20975;-47
2023/09/05 07:24:14;;;;;;;231.33;101.53;;;;;;;;;;5071101;28;20419;-47
2023/09/05 07:26:41;;;;;;;230.07;97.80;;;;;;;;;;5071717;28;20801;-47
2023/09/05 07:29:09;;;;;;;235.27;106.03;;;;;;;;;;5071211;28;20450;-47
2023/09/05 07:31:35;;;;;;;233.00;105.37;;;;;;;;;;5071148;28;20401;-47
2023/09/05 07:34:01;;;;;;;231.30;104.17;;;;;;;;;;5071615;28;20523;-47
2023/09/05 07:36:28;;;;;;;230.40;104.33;;;;;;;;;;5071220;28;20843;-46
2023/09/05 07:38:54;;;;;;;232.03;106.97;;;;;;;;;;5071252;28;20442;-47
2023/09/05 07:41:20;;;;;;;228.57;103.30;;;;;;;;;;5071337;28;20409;-47
2023/09/05 07:43:46;;;;;;;232.00;111.37;;;;;;;;;;5071054;28;20958;-47
2023/09/05 07:46:13;;;;;;;232.90;114.30;;;;;;;;;;5071184;28;20502;-47
2023/09/05 07:48:39;;;;;;;234.43;116.33;;;;;;;;;;5071190;28;20412;-48
2023/09/05 07:51:07;;;;;;;233.20;114.93;;;;;;;;;;5070672;28;20897;-48
2023/09/05 07:53:34;;;;;;;230.83;111.40;;;;;;;;;;5090589;28;20434;-47
2023/09/05 07:56:01;;;;;;;230.03;114.10;;;;;;;;;;5091333;28;20400;-47
2023/09/05 07:58:27;;;;;;;228.80;111.10;;;;;;;;;;5076003;28;20435;-47
2023/09/05 08:00:53;;;;;;;230.50;116.90;;;;;;;;;;5070519;28;20413;-47
2023/09/05 08:03:20;;;;;;;234.63;116.90;;;;;;;;;;5070964;28;20500;-48
2023/09/05 08:05:46;;;;;;;233.27;116.40;;;;;;;;;;5071796;28;20499;-47
2023/09/05 08:08:13;;;;;;;231.03;112.90;;;;;;;;;;5073118;28;20857;-48
2023/09/05 08:10:39;;;;;;;242.87;130.90;;;;;;;;;;5073040;28;20396;-47
2023/09/05 08:13:06;;;;;;;241.37;126.03;;;;;;;;;;5073442;28;20446;-47
2023/09/05 08:15:31;;;;;;;236.93;122.83;;;;;;;;;;5074464;28;20914;-48
2023/09/05 08:17:57;;;;;;;232.60;118.37;;;;;;;;;;5074294;28;20484;-47
2023/09/05 08:20:24;;;;;;;235.17;122.87;;;;;;;;;;5074329;28;20748;-48
2023/09/05 08:22:50;;;;;;;235.70;124.63;;;;;;;;;;5074218;28;20444;-47
2023/09/05 08:25:16;;;;;;;233.83;120.10;;;;;;;;;;5074231;28;20446;-48
2023/09/05 08:27:42;;;;;;;236.23;128.13;;;;;;;;;;5074251;28;20480;-47
2023/09/05 08:30:13;;;;;;;233.60;127.87;;;;;;;;;;5073927;28;20401;-47
2023/09/05 08:32:39;;;;;;;234.07;125.90;;;;;;;;;;5071886;28;20443;-47
2023/09/05 08:35:11;;;;;;;233.60;125.23;;;;;;;;;;5073783;28;20628;-47
2023/09/05 08:37:38;;;;;;;236.43;133.47;;;;;;;;;;5078049;28;20412;-47
2023/09/05 08:40:04;;;;;;;232.53;125.50;;;;;;;;;;5073648;28;20893;-47
2023/09/05 08:42:31;;;;;;;233.00;129.37;;;;;;;;;;5073417;28;20460;-47
2023/09/05 08:44:58;;;;;;;231.70;129.00;;;;;;;;;;5073569;28;20439;-47
2023/09/05 08:47:24;;;;;;;234.00;131.90;;;;;;;;;;5073732;28;20401;-47
2023/09/05 08:49:50;;;;;;;235.53;133.33;;;;;;;;;;5073389;28;20438;-48
2023/09/05 08:52:18;;;;;;;231.40;131.00;;;;;;;;;;5073565;28;20516;-48
2023/09/05 08:54:44;;;;;;;230.30;129.40;;;;;;;;;;5073428;28;20432;-48
2023/09/05 08:57:13;;;;;;;229.97;128.93;;;;;;;;;;5073367;28;20416;-47
2023/09/05 08:59:40;;;;;;;233.17;133.57;;;;;;;;;;5064981;28;20409;-47
2023/09/05 09:02:08;;;;;;;230.30;131.77;;;;;;;;;;5073302;28;20490;-47
2023/09/05 09:04:48;;;;;;;231.10;130.93;;;;;;;;;;5073162;28;20426;-47
2023/09/05 09:07:14;;;;;;;231.20;131.60;;;;;;;;;;5073296;28;20393;-47
2023/09/05 09:09:40;;;;;;;227.17;128.87;;;;;;;;;;5072920;28;20430;-47
2023/09/05 09:12:07;;;;;;;230.00;131.57;;;;;;;;;;5071073;28;20417;-48
2023/09/05 09:14:33;;;;;;;226.30;128.67;;;;;;;;;;5069226;28;20501;-48
2023/09/05 09:17:04;;;;;;;229.87;131.40;;;;;;;;;;5072473;28;20876;-47
2023/09/05 09:19:31;;;;;;;229.23;128.47;;;;;;;;;;5071028;28;20846;-47
2023/09/05 09:22:01;;;;;;;228.03;133.37;;;;;;;;;;5070819;28;20496;-47
2023/09/05 09:24:34;;;;;;;231.10;133.20;;;;;;;;;;5071926;28;20924;-47
2023/09/05 09:27:04;;;;;;;228.00;129.27;;;;;;;;;;5071075;28;20714;-47
2023/09/05 09:29:30;;;;;;;223.90;128.27;;;;;;;;;;5072851;28;20436;-48
2023/09/05 09:32:04;;;;;;;227.97;134.97;;;;;;;;;;5072749;28;20458;-47
2023/09/05 09:34:32;;;;;;;224.93;129.67;;;;;;;;;;5072836;28;20499;-47
2023/09/05 09:36:58;;;;;;;224.33;125.83;;;;;;;;;;5072869;28;20412;-47
2023/09/05 09:39:25;;;;;;;227.63;131.27;;;;;;;;;;5073032;28;20511;-47
2023/09/05 09:41:53;;;;;;;227.13;133.87;;;;;;;;;;5072619;28;20862;-47
2023/09/05 09:44:33;;;;;;;228.90;134.70;;;;;;;;;;5072640;28;20416;-47
2023/09/05 09:47:01;;;;;;;228.93;132.90;;;;;;;;;;5072736;28;20788;-48
2023/09/05 09:49:28;;;;;;;227.83;133.43;;;;;;;;;;5072473;28;20412;-47
2023/09/05 09:51:55;;;;;;;230.87;134.33;;;;;;;;;;5072193;28;20904;-47
2023/09/05 09:54:24;;;;;;;227.63;133.83;;;;;;;;;;5072382;28;20919;-47
2023/09/05 09:56:50;;;;;;;247.53;149.87;;;;;;;;;;5071587;28;20495;-47
2023/09/05 09:59:19;;;;;;;226.90;128.17;;;;;;;;;;5072446;28;20503;-47
2023/09/05 10:01:47;;;;;;;228.50;134.60;;;;;;;;;;5071957;28;22311;-47
2023/09/05 10:04:14;;;;;;;229.13;135.80;;;;;;;;;;5072291;28;20457;-47
2023/09/05 10:06:41;;;;;;;228.67;137.80;;;;;;;;;;5072325;28;20441;-47
2023/09/05 10:09:09;;;;;;;230.00;138.20;;;;;;;;;;5072430;28;20416;-47
2023/09/05 10:11:35;;;;;;;230.60;140.77;;;;;;;;;;5071918;28;20408;-47
2023/09/05 10:14:02;;;;;;;230.60;140.10;;;;;;;;;;5072019;28;20859;-47
2023/09/05 10:16:28;;;;;;;231.73;141.07;;;;;;;;;;5071917;28;20401;-47
2023/09/05 10:18:54;;;;;;;228.87;138.60;;;;;;;;;;5072073;28;20889;-46
2023/09/05 10:21:25;;;;;;;231.80;144.63;;;;;;;;;;5071990;28;20801;-47
2023/09/05 10:23:53;;;;;;;229.00;140.13;;;;;;;;;;5071830;28;20955;-47
2023/09/05 10:26:19;;;;;;;236.27;148.83;;;;;;;;;;5072006;28;20396;-47
2023/09/05 10:28:46;;;;;;;238.13;151.83;;;;;;;;;;5071378;28;20400;-47
2023/09/05 10:31:13;;;;;;;236.03;151.57;;;;;;;;;;5071753;28;20432;-47
2023/09/05 10:33:39;;;;;;;239.87;149.83;;;;;;;;;;5071765;28;20419;-47
2023/09/05 10:36:06;;;;;;;237.40;147.33;;;;;;;;;;5072005;28;20764;-47
2023/09/05 10:38:37;;;;;;;240.33;152.27;;;;;;;;;;5071673;28;20827;-47
2023/09/05 10:41:04;;;;;;;240.37;148.67;;;;;;;;;;5071549;28;20384;-47
2023/09/05 10:43:30;;;;;;;240.20;150.10;;;;;;;;;;5071587;28;20484;-48
2023/09/05 10:45:57;;;;;;;240.87;152.27;;;;;;;;;;5071835;28;20397;-47
2023/09/05 10:48:36;;;;;;;239.23;150.77;;;;;;;;;;5071842;28;20880;-47
2023/09/05 10:51:07;;;;;;;239.63;153.60;;;;;;;;;;5071495;28;20455;-47
2023/09/05 10:53:33;;;;;;;230.10;142.93;;;;;;;;;;5090863;28;20438;-47
2023/09/05 10:56:00;;;;;;;229.50;143.60;;;;;;;;;;5091903;28;20399;-47
2023/09/05 10:58:51;;;;;;;230.00;147.00;;;;;;;;;;5091903;28;20399;-47
2023/09/05 11:01:29;;;;;;;232.60;147.10;;;;;;;;;;5091646;28;20452;-47
2023/09/05 11:03:55;;;;;;;231.70;146.60;;;;;;;;;;5091574;28;20469;-48
2023/09/05 11:06:22;;;;;;;230.70;147.30;;;;;;;;;;5091826;28;20392;-47
2023/09/05 11:09:06;;;;;;;230.13;147.47;;;;;;;;;;5091736;28;20398;-47
2023/09/05 11:11:36;;;;;;;230.33;146.80;;;;;;;;;;5091522;28;20471;-47
2023/09/05 11:14:03;;;;;;;228.27;146.07;;;;;;;;;;5091662;28;20425;-47
2023/09/05 11:16:46;;;;;;;228.27;143.20;;;;;;;;;;5091529;28;20456;-47
2023/09/05 11:19:12;;;;;;;231.63;146.83;;;;;;;;;;5091767;28;20400;-47
2023/09/05 11:21:38;;;;;;;232.67;148.97;;;;;;;;;;5091307;28;20395;-48
2023/09/05 11:24:04;;;;;;;228.70;147.67;;;;;;;;;;5091641;28;20427;-48
2023/09/05 11:26:30;;;;;;;230.37;147.77;;;;;;;;;;5091667;28;20407;-47
2023/09/05 11:28:56;;;;;;;236.33;156.30;;;;;;;;;;5091481;28;20885;-47
2023/09/05 11:31:22;;;;;;;234.97;155.83;;;;;;;;;;5091383;28;20402;-48
2023/09/05 11:33:48;;;;;;;234.97;154.20;;;;;;;;;;5091444;28;20423;-48
2023/09/05 11:36:14;;;;;;;235.43;152.37;;;;;;;;;;5091532;28;20831;-47
2023/09/05 11:38:47;;;;;;;233.93;153.43;;;;;;;;;;5067387;28;20420;-47
2023/09/05 11:41:13;;;;;;;238.30;156.93;;;;;;;;;;5055411;28;20935;-47
2023/09/05 11:43:47;;;;;;;234.53;154.73;;;;;;;;;;5054888;28;20460;-47
2023/09/05 11:46:13;;;;;;;234.17;153.90;;;;;;;;;;5054995;28;20401;-47
2023/09/05 11:48:41;;;;;;;230.63;150.07;;;;;;;;;;5055034;28;20397;-47
2023/09/05 11:51:07;;;;;;;233.63;154.47;;;;;;;;;;5054474;28;20511;-47
2023/09/05 11:53:33;;;;;;;232.27;153.03;;;;;;;;;;5093556;28;20503;-47
2023/09/05 11:55:59;;;;;;;229.80;151.40;;;;;;;;;;5095186;28;20463;-47
2023/09/05 11:58:26;;;;;;;232.73;153.73;;;;;;;;;;5095103;28;20407;-47
2023/09/05 12:00:53;;;;;;;232.27;155.67;;;;;;;;;;5094794;28;20792;-47
2023/09/05 12:03:19;;;;;;;228.60;150.47;;;;;;;;;;5094971;28;20458;-47
2023/09/05 12:05:51;;;;;;;229.30;149.37;;;;;;;;;;5094753;28;20907;-47
2023/09/05 12:08:21;;;;;;;228.00;149.97;;;;;;;;;;5095729;28;20950;-47
2023/09/05 12:10:51;;;;;;;232.80;155.13;;;;;;;;;;5093835;28;20392;-47
2023/09/05 12:13:17;;;;;;;232.20;153.23;;;;;;;;;;5092976;28;21145;-47
2023/09/05 12:15:45;;;;;;;229.60;151.53;;;;;;;;;;5094035;28;20404;-47
2023/09/05 12:18:17;;;;;;;227.23;145.83;;;;;;;;;;5094729;28;20400;-48
2023/09/05 12:20:54;;;;;;;227.23;150.67;;;;;;;;;;5094541;28;20410;-47
2023/09/05 12:23:23;;;;;;;228.10;151.03;;;;;;;;;;5094356;28;20459;-47
2023/09/05 12:25:52;;;;;;;227.40;152.43;;;;;;;;;;5094566;28;20404;-47
2023/09/05 12:28:20;;;;;;;227.00;148.73;;;;;;;;;;5094568;28;20392;-47
2023/09/05 12:30:50;;;;;;;229.00;153.73;;;;;;;;;;5094150;28;20738;-47
2023/09/05 12:33:17;;;;;;;233.57;158.40;;;;;;;;;;5094483;28;20415;-48
2023/09/05 12:35:44;;;;;;;232.80;156.97;;;;;;;;;;5093198;28;20416;-47
2023/09/05 12:38:11;;;;;;;231.37;156.40;;;;;;;;;;5094245;28;20403;-48
2023/09/05 12:40:37;;;;;;;232.27;157.73;;;;;;;;;;5094195;28;20404;-47
2023/09/05 12:43:04;;;;;;;231.63;158.63;;;;;;;;;;5094034;28;20772;-47
2023/09/05 12:45:31;;;;;;;230.17;156.23;;;;;;;;;;5094406;28;20402;-47
2023/09/05 12:47:58;;;;;;;227.60;152.37;;;;;;;;;;5087629;28;20412;-47
2023/09/05 12:50:36;;;;;;;230.43;161.33;;;;;;;;;;5072794;28;20412;-44
2023/09/05 12:53:02;;;;;;;228.43;154.93;;;;;;;;;;5073779;28;20400;-45
2023/09/05 12:55:31;;;;;;;229.83;157.20;;;;;;;;;;5073746;28;20431;-46
2023/09/05 12:57:57;;;;;;;227.30;148.00;;;;;;;;;;5073749;28;20407;-44
2023/09/05 13:00:23;;;;;;;226.30;153.23;;;;;;;;;;5073600;28;20400;-46
2023/09/05 13:02:49;;;;;;;227.67;152.73;;;;;;;;;;5073557;28;20554;-44
2023/09/05 13:05:15;;;;;;;227.63;153.53;;;;;;;;;;5073635;28;20432;-45
2023/09/05 13:07:42;;;;;;;228.23;154.47;;;;;;;;;;5073617;28;20556;-44
2023/09/05 13:10:08;;;;;;;228.73;154.93;;;;;;;;;;5073162;28;20420;-45
2023/09/05 13:12:34;;;;;;;227.57;155.37;;;;;;;;;;5073484;28;20408;-45
2023/09/05 13:15:00;;;;;;;225.93;150.93;;;;;;;;;;5073238;28;20450;-45
2023/09/05 13:17:26;;;;;;;227.37;153.53;;;;;;;;;;5072221;28;20400;-45
2023/09/05 13:19:52;;;;;;;232.10;159.20;;;;;;;;;;5073266;28;20409;-44
2023/09/05 13:22:19;;;;;;;226.13;154.63;;;;;;;;;;5073158;28;20490;-45
2023/09/05 13:24:45;;;;;;;228.60;158.80;;;;;;;;;;5073509;28;20186;-45
2023/09/05 13:27:11;;;;;;;226.53;151.40;;;;;;;;;;5073170;28;20404;-44
2023/09/05 13:29:37;;;;;;;228.13;156.40;;;;;;;;;;5072895;28;20408;-45
2023/09/05 13:32:10;;;;;;;228.67;155.00;;;;;;;;;;5072886;28;20823;-44
2023/09/05 13:34:39;;;;;;;226.37;150.50;;;;;;;;;;5072904;28;20431;-44
2023/09/05 13:37:05;;;;;;;227.40;155.63;;;;;;;;;;5072689;28;20481;-45
2023/09/05 13:39:32;;;;;;;224.93;150.70;;;;;;;;;;5072790;28;20424;-44
2023/09/05 13:42:01;;;;;;;225.73;152.57;;;;;;;;;;5072645;28;20948;-44
2023/09/05 13:44:27;;;;;;;224.70;153.37;;;;;;;;;;5072675;28;20424;-45
2023/09/05 13:46:54;;;;;;;227.87;154.07;;;;;;;;;;5072827;28;20919;-45
2023/09/05 13:49:21;;;;;;;225.87;150.67;;;;;;;;;;5072580;28;20400;-44
2023/09/05 13:51:47;;;;;;;225.67;150.50;;;;;;;;;;5076996;28;20419;-45
2023/09/05 13:54:13;;;;;;;224.10;146.43;;;;;;;;;;5092781;28;20498;-44
2023/09/05 13:56:42;;;;;;;228.17;153.37;;;;;;;;;;5092903;28;20399;-45
2023/09/05 13:59:08;;;;;;;228.10;150.23;;;;;;;;;;5092746;28;20412;-44